Churchville, Iowa
Current Conditions -  °F | °C
As of 10:54 PM on Monday 20 Oct 2014 (Local Time) from KDSM Reporting Station
Clear Clear  
Wind Chill: 55°   Ceiling: Unl
Heat Index: 55°   Visibility: 10mi
Dew Point: 41°   Wind: 0mph
Humidity: 59%   Direction: NA
Pressure: 30.05"   Gusts: NA
Location:  41.4552°N, 93.6809°W
Report Text: KDSM 210354Z 00000KT 10SM CLR 13/05 A3005 RMK AO2 SLP175 T01280050
Loading
Personal Weather Stations






























Interactive Weather Map
Tropical Storm Tracking
New forecast layout! Learn more

10-Day Weather Forecast

Advertisements
Track Severe Weather on mobile